createdAt,value
2023-03-22T00:00:14.961Z,13.67
2023-03-22T00:02:43.602Z,13.32
2023-03-22T00:05:12.216Z,13.78
2023-03-22T00:07:41.426Z,13.39
2023-03-22T00:10:12.156Z,13.75
2023-03-22T00:12:40.792Z,13.84
2023-03-22T00:15:11.217Z,14.24
2023-03-22T00:17:39.815Z,14.14
2023-03-22T00:20:10.027Z,14.12
2023-03-22T00:22:38.654Z,14.16
2023-03-22T00:25:08.101Z,13.61
2023-03-22T00:27:38.120Z,13.52
2023-03-22T00:30:08.005Z,13.50
2023-03-22T00:32:37.319Z,13.45
2023-03-22T00:35:07.305Z,13.94
2023-03-22T00:37:38.660Z,13.73
2023-03-22T00:40:09.456Z,13.71
2023-03-22T00:42:40.343Z,12.94
2023-03-22T00:45:11.341Z,13.44
2023-03-22T00:47:40.323Z,13.64
2023-03-22T00:50:09.957Z,13.21
2023-03-22T00:52:38.561Z,13.45
2023-03-22T00:55:07.810Z,12.46
2023-03-22T00:57:36.361Z,12.55
2023-03-22T01:00:11.517Z,12.59
2023-03-22T01:02:40.160Z,12.66
2023-03-22T01:05:09.667Z,12.73
2023-03-22T01:07:41.659Z,13.24
2023-03-22T01:10:11.629Z,13.40
2023-03-22T01:12:40.635Z,13.13
2023-03-22T01:15:12.253Z,13.53
2023-03-22T01:17:40.802Z,13.67
2023-03-22T01:20:11.187Z,12.96
2023-03-22T01:22:39.764Z,13.00
2023-03-22T01:25:09.524Z,13.06
2023-03-22T01:27:38.384Z,12.43
2023-03-22T01:30:09.720Z,13.07
2023-03-22T01:32:39.321Z,13.10
2023-03-22T01:35:08.733Z,12.46
2023-03-22T01:37:37.463Z,13.00
2023-03-22T01:40:07.381Z,12.67
2023-03-22T01:42:37.040Z,13.00
2023-03-22T01:45:44.107Z,12.34
2023-03-22T01:48:23.018Z,12.87
2023-03-22T01:51:04.026Z,12.28
2023-03-22T01:53:36.798Z,12.85
2023-03-22T01:56:06.494Z,12.91
2023-03-22T01:58:37.678Z,13.42
2023-03-22T02:01:08.847Z,13.10
2023-03-22T02:03:48.128Z,13.47
2023-03-22T02:06:17.300Z,13.44
2023-03-22T02:08:45.995Z,13.40
2023-03-22T02:11:18.158Z,12.88
2023-03-22T02:14:09.137Z,13.05
2023-03-22T02:16:49.766Z,12.44
2023-03-22T02:19:45.713Z,12.83
2023-03-22T02:22:41.811Z,13.24
2023-03-22T02:25:36.710Z,12.94
2023-03-22T02:28:24.360Z,12.34
2023-03-22T02:31:31.610Z,12.31
2023-03-22T02:34:27.721Z,12.37
2023-03-22T02:37:29.799Z,12.58
2023-03-22T02:40:05.724Z,12.30
2023-03-22T02:42:45.312Z,12.50
2023-03-22T02:45:19.248Z,12.27
2023-03-22T02:47:56.748Z,12.08
2023-03-22T02:50:29.859Z,12.01
2023-03-22T02:53:06.028Z,11.93
2023-03-22T02:55:40.393Z,12.18
2023-03-22T02:58:16.370Z,11.48
2023-03-22T03:00:47.101Z,11.58
2023-03-22T03:03:18.456Z,11.23
2023-03-22T03:05:52.844Z,11.70
2023-03-22T03:08:23.781Z,11.41
2023-03-22T03:10:55.306Z,11.98
2023-03-22T03:13:24.201Z,12.52
2023-03-22T03:15:57.392Z,12.30
2023-03-22T03:18:35.840Z,12.94
2023-03-22T03:21:14.876Z,12.27
2023-03-22T03:23:53.908Z,12.50
2023-03-22T03:26:31.204Z,11.73
2023-03-22T03:29:05.173Z,12.42
2023-03-22T03:31:40.432Z,12.91
2023-03-22T03:34:17.788Z,11.86
2023-03-22T03:36:52.044Z,11.74
2023-03-22T03:39:23.071Z,12.12
2023-03-22T03:41:54.483Z,11.54
2023-03-22T03:44:23.679Z,11.65
2023-03-22T03:46:53.585Z,11.60
2023-03-22T03:49:24.262Z,11.39
2023-03-22T03:51:54.949Z,11.69
2023-03-22T03:54:24.563Z,11.17
2023-03-22T03:56:54.772Z,11.79
2023-03-22T03:59:23.377Z,11.64
2023-03-22T04:01:52.773Z,11.81
2023-03-22T04:04:26.909Z,11.94
2023-03-22T04:06:57.789Z,11.99
2023-03-22T04:09:27.350Z,11.90
2023-03-22T04:11:58.262Z,12.32
2023-03-22T04:14:27.402Z,12.39
2023-03-22T04:16:56.679Z,12.12
2023-03-22T04:19:26.014Z,12.85
2023-03-22T04:21:55.147Z,11.57
2023-03-22T04:24:24.097Z,11.00
2023-03-22T04:26:53.492Z,10.78
2023-03-22T04:29:24.571Z,11.00
2023-03-22T04:31:53.852Z,10.85
2023-03-22T04:34:22.199Z,10.23
2023-03-22T04:36:51.075Z,10.62
2023-03-22T04:39:19.713Z,10.31
2023-03-22T04:41:48.369Z,10.02
2023-03-22T04:44:16.941Z,10.77
2023-03-22T04:46:46.914Z,11.00
2023-03-22T04:49:15.829Z,10.88
2023-03-22T04:51:44.825Z,10.61
2023-03-22T04:54:13.362Z,10.98
2023-03-22T04:56:41.955Z,11.54
2023-03-22T04:59:10.892Z,11.64
2023-03-22T05:01:40.830Z,11.62
2023-03-22T05:04:10.804Z,11.21
2023-03-22T05:06:39.415Z,10.69
2023-03-22T05:09:08.137Z,11.16
2023-03-22T05:11:36.799Z,10.94
2023-03-22T05:14:05.800Z,10.91
2023-03-22T05:16:34.462Z,10.88
2023-03-22T05:19:03.471Z,11.09
2023-03-22T05:21:37.009Z,11.42
2023-03-22T05:24:06.082Z,11.20
2023-03-22T05:26:38.091Z,11.91
2023-03-22T05:29:07.220Z,11.77
2023-03-22T05:31:35.833Z,11.92
2023-03-22T05:34:04.670Z,11.91
2023-03-22T05:36:36.587Z,11.72
2023-03-22T05:39:05.593Z,11.42
2023-03-22T05:41:36.513Z,10.88
2023-03-22T05:44:05.832Z,11.70
2023-03-22T05:46:34.467Z,11.29
2023-03-22T05:49:03.030Z,11.35
2023-03-22T05:51:32.963Z,11.94
2023-03-22T05:54:01.502Z,11.56
2023-03-22T05:56:30.069Z,11.83
2023-03-22T05:58:59.460Z,11.75
2023-03-22T06:01:28.136Z,11.85
2023-03-22T06:03:56.681Z,11.44
2023-03-22T06:06:28.058Z,11.32
2023-03-22T06:09:10.577Z,11.32
2023-03-22T06:11:44.827Z,11.61
2023-03-22T06:14:13.577Z,12.41
2023-03-22T06:16:42.184Z,11.35
2023-03-22T06:19:10.758Z,11.38
2023-03-22T06:21:39.323Z,11.07
2023-03-22T06:24:09.400Z,11.33
2023-03-22T06:26:37.949Z,11.20
2023-03-22T06:29:06.590Z,11.40
2023-03-22T06:31:35.140Z,11.49
2023-03-22T06:34:03.824Z,11.46
2023-03-22T06:36:32.699Z,11.30
2023-03-22T06:39:02.812Z,11.63
2023-03-22T06:41:32.824Z,11.70
2023-03-22T06:44:02.624Z,11.45
2023-03-22T06:46:31.271Z,12.27
2023-03-22T06:48:59.823Z,12.31
2023-03-22T06:51:28.385Z,11.74
2023-03-22T06:53:57.010Z,11.71
2023-03-22T06:56:25.623Z,11.43
2023-03-22T06:58:58.002Z,11.79
2023-03-22T07:01:26.703Z,11.15
2023-03-22T07:03:55.239Z,11.04
2023-03-22T07:06:23.797Z,11.33
2023-03-22T07:08:52.322Z,11.59
2023-03-22T07:11:20.907Z,11.65
2023-03-22T07:13:49.493Z,11.83
2023-03-22T07:16:20.377Z,12.55
2023-03-22T07:18:49.313Z,12.23
2023-03-22T07:21:17.921Z,12.36
2023-03-22T07:23:46.637Z,13.41
2023-03-22T07:26:15.394Z,12.92
2023-03-22T07:28:44.703Z,12.80
2023-03-22T07:31:14.500Z,12.71
2023-03-22T07:33:44.722Z,12.40
2023-03-22T07:36:13.933Z,12.52
2023-03-22T07:38:42.473Z,12.26
2023-03-22T07:41:11.168Z,12.15
2023-03-22T07:43:52.745Z,12.18
2023-03-22T07:46:24.130Z,11.92
2023-03-22T07:48:54.013Z,12.10
2023-03-22T07:51:22.615Z,12.10
2023-03-22T07:53:51.196Z,12.21
2023-03-22T07:56:19.776Z,12.60
2023-03-22T07:58:48.364Z,12.16
2023-03-22T08:01:17.014Z,12.21
2023-03-22T08:03:45.590Z,12.12
2023-03-22T08:06:16.452Z,12.06
2023-03-22T08:08:45.014Z,12.20
2023-03-22T08:11:13.684Z,12.12
2023-03-22T08:13:42.216Z,12.50
2023-03-22T08:16:11.224Z,12.02
2023-03-22T08:18:39.807Z,12.02
2023-03-22T08:21:08.611Z,12.23
2023-03-22T08:23:42.144Z,12.14
2023-03-22T08:26:11.969Z,12.27
2023-03-22T08:28:40.509Z,12.15
2023-03-22T08:31:15.124Z,11.97
2023-03-22T08:33:44.332Z,12.27
2023-03-22T08:36:15.630Z,12.60
2023-03-22T08:38:45.800Z,12.34
2023-03-22T08:41:15.951Z,11.95
2023-03-22T08:43:44.665Z,12.27
2023-03-22T08:46:13.258Z,12.47
2023-03-22T08:48:41.860Z,12.50
2023-03-22T08:51:10.684Z,12.86
2023-03-22T08:53:39.579Z,12.31
2023-03-22T08:56:10.422Z,12.64
2023-03-22T08:58:38.964Z,12.68
2023-03-22T09:01:07.884Z,12.78
2023-03-22T09:03:36.566Z,13.05
2023-03-22T09:06:05.609Z,13.09
2023-03-22T09:08:34.330Z,12.59
2023-03-22T09:11:03.265Z,12.74
2023-03-22T09:13:33.176Z,13.53
2023-03-22T09:16:01.936Z,13.62
2023-03-22T09:18:30.930Z,13.69
2023-03-22T09:20:59.518Z,14.15
2023-03-22T09:23:30.397Z,13.49
2023-03-22T09:26:02.451Z,13.02
2023-03-22T09:28:32.752Z,13.32
2023-03-22T09:31:02.591Z,13.38
2023-03-22T09:33:31.634Z,12.94
2023-03-22T09:36:00.212Z,12.88
2023-03-22T09:38:32.539Z,12.62
2023-03-22T09:41:04.544Z,13.05
2023-03-22T09:43:37.061Z,12.96
2023-03-22T09:46:09.750Z,13.23
2023-03-22T09:48:42.439Z,13.42
2023-03-22T09:51:28.871Z,13.13
2023-03-22T09:53:57.657Z,13.39
2023-03-22T09:56:30.966Z,13.19
2023-03-22T09:59:08.941Z,13.30
2023-03-22T10:01:43.258Z,14.00
2023-03-22T10:04:19.353Z,13.33
2023-03-22T10:06:59.882Z,13.30
2023-03-22T10:09:36.297Z,12.87
2023-03-22T10:12:13.546Z,12.91
2023-03-22T10:14:51.094Z,13.15
2023-03-22T10:17:24.197Z,13.43
2023-03-22T10:19:57.657Z,14.13
2023-03-22T10:22:30.944Z,14.01
2023-03-22T10:25:01.239Z,13.73
2023-03-22T10:27:32.680Z,13.73
2023-03-22T10:30:08.307Z,13.82
2023-03-22T10:32:56.823Z,13.78
2023-03-22T10:35:26.648Z,13.47
2023-03-22T10:37:58.455Z,13.07
2023-03-22T10:40:29.906Z,13.24
2023-03-22T10:43:02.215Z,13.57
2023-03-22T10:45:35.993Z,13.16
2023-03-22T10:48:08.268Z,13.64
2023-03-22T10:50:39.176Z,13.86
2023-03-22T10:53:12.140Z,13.79
2023-03-22T10:55:42.606Z,13.75
2023-03-22T10:58:15.735Z,13.35
2023-03-22T11:00:50.080Z,13.81
2023-03-22T11:03:31.900Z,13.74
2023-03-22T11:06:02.594Z,13.45
2023-03-22T11:08:39.293Z,13.26
2023-03-22T11:11:08.203Z,13.21
2023-03-22T11:13:37.779Z,13.64
2023-03-22T11:16:08.654Z,13.91
2023-03-22T11:18:37.476Z,13.48
2023-03-22T11:21:10.968Z,12.94
2023-03-22T11:23:43.485Z,13.13
2023-03-22T11:26:14.114Z,13.11
2023-03-22T11:28:47.712Z,13.38
2023-03-22T11:31:19.894Z,13.78
2023-03-22T11:33:57.971Z,13.13
2023-03-22T11:36:28.036Z,13.15
2023-03-22T11:39:00.494Z,13.37
2023-03-22T11:41:30.900Z,13.14
2023-03-22T11:44:02.795Z,13.23
2023-03-22T11:46:34.332Z,13.50
2023-03-22T11:49:07.404Z,13.52
2023-03-22T11:51:38.857Z,13.10
2023-03-22T11:54:11.926Z,13.10
2023-03-22T11:56:44.682Z,13.48
2023-03-22T11:59:16.847Z,13.29
2023-03-22T12:01:52.662Z,12.84
2023-03-22T12:04:25.593Z,12.88
2023-03-22T12:06:57.397Z,13.67
2023-03-22T12:09:36.872Z,13.19
2023-03-22T12:12:10.996Z,13.63
2023-03-22T12:14:46.431Z,13.17
2023-03-22T12:17:25.683Z,13.37
2023-03-22T12:20:06.223Z,13.08
2023-03-22T12:22:36.923Z,13.26
2023-03-22T12:25:12.182Z,13.29
2023-03-22T12:27:44.843Z,13.26
2023-03-22T12:30:16.717Z,13.08
2023-03-22T12:32:52.143Z,12.99
2023-03-22T12:35:24.919Z,13.27
2023-03-22T12:37:56.885Z,12.81
2023-03-22T12:40:29.537Z,13.36
2023-03-22T12:43:07.535Z,13.12
2023-03-22T12:45:42.351Z,13.74
2023-03-22T12:48:18.849Z,13.33
2023-03-22T12:50:53.079Z,13.42
2023-03-22T12:53:23.997Z,13.18
2023-03-22T12:55:53.717Z,13.31
2023-03-22T12:58:24.437Z,13.36
2023-03-22T13:00:58.124Z,13.58
2023-03-22T13:03:37.735Z,13.73
2023-03-22T13:06:18.639Z,13.90
2023-03-22T13:09:04.334Z,14.08
2023-03-22T13:11:32.933Z,13.53
2023-03-22T13:14:01.578Z,13.64
2023-03-22T13:16:51.165Z,13.88
2023-03-22T13:19:30.068Z,13.31
2023-03-22T13:22:21.072Z,13.50
2023-03-22T13:25:17.175Z,13.66
2023-03-22T13:27:53.878Z,14.19
2023-03-22T13:30:27.004Z,13.61
2023-03-22T13:33:03.488Z,13.69
2023-03-22T13:35:45.171Z,13.79
2023-03-22T13:38:22.404Z,13.88
2023-03-22T13:40:58.146Z,14.02
2023-03-22T13:43:31.821Z,13.63
2023-03-22T13:46:12.468Z,13.98
2023-03-22T13:49:00.784Z,14.24
2023-03-22T13:51:33.338Z,13.80
2023-03-22T13:54:08.033Z,13.49
2023-03-22T13:56:52.947Z,13.65
2023-03-22T13:59:27.331Z,13.56
2023-03-22T14:02:00.970Z,14.06
2023-03-22T14:04:35.629Z,13.72
2023-03-22T14:07:13.189Z,13.77
2023-03-22T14:09:46.369Z,13.80
2023-03-22T14:12:20.935Z,13.56
2023-03-22T14:14:56.080Z,13.59
2023-03-22T14:17:35.343Z,13.82
2023-03-22T14:20:10.541Z,13.82
